createdAt,value
2023-05-07T00:00:04.813Z,1014.07
2023-05-07T00:05:03.330Z,1014.1
2023-05-07T00:10:04.609Z,1013.91
2023-05-07T00:15:03.335Z,1013.92
2023-05-07T00:20:04.619Z,1014.0
2023-05-07T00:25:03.417Z,1013.83
2023-05-07T00:30:04.537Z,1013.92
2023-05-07T00:35:03.337Z,1013.99
2023-05-07T00:40:10.035Z,1013.71
2023-05-07T00:45:03.325Z,1013.58
2023-05-07T00:50:04.647Z,1013.89
2023-05-07T00:55:03.185Z,1013.86
2023-05-07T01:00:04.875Z,1013.84
2023-05-07T01:05:03.263Z,1014.05
2023-05-07T01:10:05.591Z,1013.96
2023-05-07T01:15:03.286Z,1014.26
2023-05-07T01:20:09.969Z,1014.28
2023-05-07T01:25:03.425Z,1014.2
2023-05-07T01:30:04.545Z,1014.0
2023-05-07T01:35:03.312Z,1013.92
2023-05-07T01:40:04.788Z,1013.86
2023-05-07T01:45:03.439Z,1013.79
2023-05-07T01:50:05.218Z,1013.66
2023-05-07T01:55:03.449Z,1013.61
2023-05-07T02:00:04.526Z,1013.78
2023-05-07T02:05:03.258Z,1013.85
2023-05-07T02:10:04.604Z,1013.92
2023-05-07T02:15:03.304Z,1013.9
2023-05-07T02:20:06.988Z,1013.86
2023-05-07T02:25:03.559Z,1013.92
2023-05-07T02:30:04.390Z,1014.11
2023-05-07T02:35:03.239Z,1014.19
2023-05-07T02:40:05.010Z,1014.19
2023-05-07T02:45:03.352Z,1014.15
2023-05-07T02:50:04.598Z,1014.16
2023-05-07T02:55:03.405Z,1014.12
2023-05-07T03:00:04.679Z,1014.07
2023-05-07T03:05:03.211Z,1013.95
2023-05-07T03:10:04.518Z,1013.83
2023-05-07T03:15:03.626Z,1013.86
2023-05-07T03:20:04.621Z,1013.91
2023-05-07T03:25:03.164Z,1013.94
2023-05-07T03:30:04.440Z,1013.97
2023-05-07T03:35:03.199Z,1014.0
2023-05-07T03:40:04.442Z,1013.98
2023-05-07T03:45:03.380Z,1014.0
2023-05-07T03:50:04.473Z,1014.06
2023-05-07T03:55:03.445Z,1013.96
2023-05-07T04:00:04.422Z,1013.92
2023-05-07T04:05:03.330Z,1013.92
2023-05-07T04:10:04.959Z,1013.95
2023-05-07T04:15:03.365Z,1013.87
2023-05-07T04:20:09.353Z,1013.87
2023-05-07T04:25:03.336Z,1013.76
2023-05-07T04:30:04.495Z,1013.74
2023-05-07T04:35:03.264Z,1013.91
2023-05-07T04:40:04.431Z,1014.01
2023-05-07T04:45:03.299Z,1013.99
2023-05-07T04:50:04.896Z,1014.09
2023-05-07T04:55:03.401Z,1014.1
2023-05-07T05:00:04.294Z,1014.13
2023-05-07T05:05:03.321Z,1014.21
2023-05-07T05:10:04.429Z,1014.21
2023-05-07T05:15:03.287Z,1014.19
2023-05-07T05:20:04.581Z,1014.03
2023-05-07T05:25:03.133Z,1014.06
2023-05-07T05:30:04.504Z,1014.08
2023-05-07T05:35:03.265Z,1014.11
2023-05-07T05:40:04.421Z,1014.14
2023-05-07T05:45:03.301Z,1014.18
2023-05-07T05:50:04.751Z,1014.29
2023-05-07T05:55:03.409Z,1014.23
2023-05-07T06:00:04.290Z,1014.26
2023-05-07T06:05:03.244Z,1014.3
2023-05-07T06:10:04.364Z,1014.41
2023-05-07T06:15:03.305Z,1014.41
2023-05-07T06:20:04.710Z,1014.34
2023-05-07T06:25:03.217Z,1014.32
2023-05-07T06:30:04.398Z,1014.38
2023-05-07T06:35:03.235Z,1014.38
2023-05-07T06:40:04.478Z,1014.38
2023-05-07T06:45:03.279Z,1014.35
2023-05-07T06:50:04.496Z,1014.31
2023-05-07T06:55:03.445Z,1014.2
2023-05-07T07:00:04.317Z,1014.06
2023-05-07T07:05:03.283Z,1014.04
2023-05-07T07:10:04.491Z,1014.05
2023-05-07T07:15:03.293Z,1014.01
2023-05-07T07:20:04.504Z,1013.99
2023-05-07T07:25:03.370Z,1013.93
2023-05-07T07:30:05.368Z,1013.87
2023-05-07T07:35:03.254Z,1013.9
2023-05-07T07:40:05.376Z,1013.82
2023-05-07T07:45:03.271Z,1013.68
2023-05-07T07:50:04.547Z,1013.72
2023-05-07T07:55:03.494Z,1013.77
2023-05-07T08:00:04.330Z,1013.75
2023-05-07T08:05:03.210Z,1013.76
2023-05-07T08:10:04.446Z,1013.72
2023-05-07T08:15:03.261Z,1013.64
2023-05-07T08:20:09.631Z,1013.56
2023-05-07T08:25:03.369Z,1013.56
2023-05-07T08:30:04.444Z,1013.53
2023-05-07T08:35:03.322Z,1013.54
2023-05-07T08:40:06.033Z,1013.67
2023-05-07T08:45:03.272Z,1013.73
2023-05-07T08:50:05.635Z,1013.75
2023-05-07T08:55:03.295Z,1013.88
2023-05-07T09:00:04.390Z,1013.95
2023-05-07T09:05:03.187Z,1014.0
2023-05-07T09:10:04.468Z,1014.09
2023-05-07T09:15:03.286Z,1014.18
2023-05-07T09:20:04.495Z,1014.27
2023-05-07T09:25:03.426Z,1014.31
2023-05-07T09:30:04.378Z,1014.44
2023-05-07T09:35:03.251Z,1014.53
2023-05-07T09:40:04.414Z,1014.59
2023-05-07T09:45:03.298Z,1014.73
2023-05-07T09:50:04.580Z,1014.75
2023-05-07T09:55:03.444Z,1014.79
2023-05-07T10:00:04.648Z,1014.84
2023-05-07T10:05:03.205Z,1014.91
2023-05-07T10:10:04.361Z,1014.97
2023-05-07T10:15:03.375Z,1015.04
2023-05-07T10:20:04.692Z,1015.13
2023-05-07T10:25:03.477Z,1015.18
2023-05-07T10:30:04.545Z,1015.22
2023-05-07T10:35:03.199Z,1015.2
2023-05-07T10:40:04.469Z,1015.23
2023-05-07T10:45:03.350Z,1015.23
2023-05-07T10:50:04.458Z,1015.24
2023-05-07T10:55:03.301Z,1015.29
2023-05-07T11:00:05.437Z,1015.36
2023-05-07T11:05:03.191Z,1015.38
2023-05-07T11:10:04.447Z,1015.39
2023-05-07T11:15:03.367Z,1015.53
2023-05-07T11:20:04.595Z,1015.6
2023-05-07T11:25:03.341Z,1015.57
2023-05-07T11:30:04.651Z,1015.65
2023-05-07T11:35:03.407Z,1015.75
2023-05-07T11:40:04.414Z,1015.84
2023-05-07T11:45:04.414Z,1015.88
2023-05-07T11:50:04.493Z,1015.82
2023-05-07T11:55:03.327Z,1015.96
2023-05-07T12:00:04.612Z,1015.96
2023-05-07T12:05:03.257Z,1015.87
2023-05-07T12:10:04.585Z,1015.83
2023-05-07T12:15:03.373Z,1015.86
2023-05-07T12:20:04.537Z,1015.86
2023-05-07T12:25:03.505Z,1015.86
2023-05-07T12:30:04.549Z,1015.88
2023-05-07T12:35:03.219Z,1015.87
2023-05-07T12:40:04.426Z,1015.91
2023-05-07T12:45:03.330Z,1015.94
2023-05-07T12:50:04.570Z,1015.96
2023-05-07T12:55:03.372Z,1016.0
2023-05-07T13:00:04.640Z,1016.15
2023-05-07T13:05:03.413Z,1016.25
2023-05-07T13:10:04.346Z,1016.33
2023-05-07T13:15:03.222Z,1016.35
2023-05-07T13:20:04.625Z,1016.31
2023-05-07T13:25:03.341Z,1016.28
2023-05-07T13:30:04.531Z,1016.26
2023-05-07T13:35:03.201Z,1016.17
2023-05-07T13:40:04.525Z,1016.11
2023-05-07T13:45:03.232Z,1016.0
2023-05-07T13:50:04.561Z,1015.95
2023-05-07T13:55:03.421Z,1015.92
2023-05-07T14:00:04.587Z,1015.87
2023-05-07T14:05:03.446Z,1015.76
2023-05-07T14:10:05.483Z,1015.64
2023-05-07T14:15:03.267Z,1015.56
2023-05-07T14:20:04.536Z,1015.4
2023-05-07T14:25:06.702Z,1015.42
2023-05-07T14:30:04.655Z,1015.41
2023-05-07T14:35:03.226Z,1015.43
2023-05-07T14:40:04.365Z,1015.39
2023-05-07T14:45:03.270Z,1015.32
2023-05-07T14:50:04.645Z,1015.25
2023-05-07T14:55:03.359Z,1015.12
2023-05-07T15:00:04.660Z,1015.03
2023-05-07T15:05:04.263Z,1014.98
2023-05-07T15:10:04.455Z,1014.95
2023-05-07T15:15:03.367Z,1014.88
2023-05-07T15:20:04.427Z,1014.78
2023-05-07T15:25:03.389Z,1014.72
2023-05-07T15:30:04.518Z,1014.66
2023-05-07T15:35:03.427Z,1014.61
2023-05-07T15:40:04.526Z,1014.47
2023-05-07T15:45:03.256Z,1014.37
2023-05-07T15:50:04.617Z,1014.37
2023-05-07T15:55:03.430Z,1014.25
2023-05-07T16:00:04.834Z,1014.19
2023-05-07T16:05:03.220Z,1014.12
2023-05-07T16:10:04.450Z,1014.03
2023-05-07T16:15:03.344Z,1013.97
2023-05-07T16:20:04.418Z,1014.04
2023-05-07T16:25:03.343Z,1014.04
2023-05-07T16:30:04.640Z,1013.91
2023-05-07T16:35:03.301Z,1013.88
2023-05-07T16:40:04.353Z,1013.88
2023-05-07T16:45:03.245Z,1013.82
2023-05-07T16:50:04.480Z,1013.73
2023-05-07T16:55:03.397Z,1013.66
2023-05-07T17:00:05.704Z,1013.76
2023-05-07T17:05:03.574Z,1013.72
2023-05-07T17:10:04.380Z,1013.62
2023-05-07T17:15:03.214Z,1013.51
2023-05-07T17:20:05.760Z,1013.38
2023-05-07T17:25:03.313Z,1013.24
2023-05-07T17:30:04.584Z,1013.19
2023-05-07T17:35:03.366Z,1013.17
2023-05-07T17:40:04.355Z,1013.1
2023-05-07T17:45:03.220Z,1013.07
2023-05-07T17:50:04.483Z,1013.01
2023-05-07T17:55:03.361Z,1012.87
2023-05-07T18:00:04.731Z,1012.85
2023-05-07T18:05:03.517Z,1012.85
2023-05-07T18:10:04.690Z,1012.91
2023-05-07T18:15:04.194Z,1012.86
2023-05-07T18:20:04.472Z,1012.76
2023-05-07T18:25:03.366Z,1012.7
2023-05-07T18:30:04.560Z,1012.69
2023-05-07T18:35:03.351Z,1012.79
2023-05-07T18:40:04.508Z,1012.74
2023-05-07T18:45:03.202Z,1012.67
2023-05-07T18:50:06.246Z,1012.59
2023-05-07T18:55:03.400Z,1012.61
2023-05-07T19:00:09.615Z,1012.64
2023-05-07T19:05:03.463Z,1012.55
2023-05-07T19:10:05.819Z,1012.42
2023-05-07T19:15:03.258Z,1012.32
2023-05-07T19:20:04.483Z,1012.25
2023-05-07T19:25:03.332Z,1012.12
2023-05-07T19:30:04.571Z,1012.01
2023-05-07T19:35:03.196Z,1012.02
2023-05-07T19:40:04.510Z,1012.09
2023-05-07T19:45:03.362Z,1012.12
2023-05-07T19:50:04.562Z,1012.15
2023-05-07T19:55:03.296Z,1012.16
2023-05-07T20:00:04.489Z,1012.19
2023-05-07T20:05:03.386Z,1012.24
2023-05-07T20:10:04.524Z,1012.24
2023-05-07T20:15:03.243Z,1012.37
2023-05-07T20:20:04.541Z,1012.45
2023-05-07T20:25:03.338Z,1012.46
2023-05-07T20:30:04.490Z,1012.56
2023-05-07T20:35:03.191Z,1012.58
2023-05-07T20:40:04.690Z,1012.59
2023-05-07T20:45:03.865Z,1012.71
2023-05-07T20:50:04.569Z,1012.8
2023-05-07T20:55:03.313Z,1012.72
2023-05-07T21:00:04.696Z,1012.73
2023-05-07T21:05:03.145Z,1012.72
2023-05-07T21:10:07.585Z,1012.71
2023-05-07T21:15:03.267Z,1012.62
2023-05-07T21:20:04.636Z,1012.6
2023-05-07T21:25:03.363Z,1012.64
2023-05-07T21:30:04.593Z,1012.55
2023-05-07T21:35:03.270Z,1012.53
2023-05-07T21:40:04.676Z,1012.55
2023-05-07T21:45:03.344Z,1012.5
2023-05-07T21:50:04.405Z,1012.5
2023-05-07T21:55:03.330Z,1012.52
2023-05-07T22:00:04.680Z,1012.59
2023-05-07T22:05:03.398Z,1012.66
2023-05-07T22:10:04.624Z,1012.8
2023-05-07T22:15:03.411Z,1012.84
2023-05-07T22:20:04.512Z,1013.0
2023-05-07T22:25:03.319Z,1012.76
2023-05-07T22:30:04.534Z,1012.79
2023-05-07T22:35:03.385Z,1012.91
2023-05-07T22:40:04.515Z,1013.2
2023-05-07T22:45:03.244Z,1013.59
2023-05-07T22:50:04.424Z,1013.63
2023-05-07T22:55:03.424Z,1013.63
2023-05-07T23:00:04.653Z,1013.46
2023-05-07T23:05:03.405Z,1013.41
2023-05-07T23:10:04.856Z,1013.39
2023-05-07T23:15:04.188Z,1013.5
2023-05-07T23:20:04.667Z,1013.74
2023-05-07T23:25:03.387Z,1013.54
2023-05-07T23:30:04.774Z,1013.27
2023-05-07T23:35:03.398Z,1012.97
2023-05-07T23:40:04.599Z,1012.81
2023-05-07T23:45:03.548Z,1013.08
2023-05-07T23:50:04.562Z,1013.54
2023-05-07T23:55:03.433Z,1013.48
